<?xml version="1.0" encoding="utf-8"?>
<gpx xmlns:xsi="http://www.w3.org/2001/XMLSchema-instance" xmlns:xsd="http://www.w3.org/2001/XMLSchema" version="1.1" creator="Shapelink.com" xmlns="http://www.topografix.com/GPX/1/1" xmlns:gpxtpx="http://www.garmin.com/xmlschemas/TrackPointExtension/v1">
  <metadata>
    <name>Løping 3.30 km, 2012-08-09</name>
    <desc></desc>
    <author><name>Mikael Blom</name></author> 
    <time>2012-08-09T19:06:58Z</time>
  </metadata>
  <trk>
    <name>Løping 3.30 km, 2012-08-09</name>
    <trkseg>
      <trkpt lat="59.9867295" lon="17.7393342">
        <ele>90.5013</ele>
        <time>2012-08-09T19:06:58Z</time>
      </trkpt>
      <trkpt lat="59.9867212" lon="17.7391933">
        <ele>69.3523</ele>
        <time>2012-08-09T19:07:02Z</time>
      </trkpt>
      <trkpt lat="59.986571" lon="17.7390449">
        <ele>68.8716</ele>
        <time>2012-08-09T19:07:08Z</time>
      </trkpt>
      <trkpt lat="59.9864778" lon="17.7389623">
        <ele>66.949</ele>
        <time>2012-08-09T19:07:12Z</time>
      </trkpt>
      <trkpt lat="59.9863468" lon="17.7388658">
        <ele>66.4683</ele>
        <time>2012-08-09T19:07:17Z</time>
      </trkpt>
      <trkpt lat="59.9862171" lon="17.7387513">
        <ele>67.4297</ele>
        <time>2012-08-09T19:07:21Z</time>
      </trkpt>
      <trkpt lat="59.9861196" lon="17.7386566">
        <ele>65.9877</ele>
        <time>2012-08-09T19:07:25Z</time>
      </trkpt>
      <trkpt lat="59.98597" lon="17.7385386">
        <ele>66.949</ele>
        <time>2012-08-09T19:07:30Z</time>
      </trkpt>
      <trkpt lat="59.9858369" lon="17.738467">
        <ele>69.3523</ele>
        <time>2012-08-09T19:07:35Z</time>
      </trkpt>
      <trkpt lat="59.985749" lon="17.7384536">
        <ele>71.7555</ele>
        <time>2012-08-09T19:07:38Z</time>
      </trkpt>
      <trkpt lat="59.9856402" lon="17.7383709">
        <ele>72.7169</ele>
        <time>2012-08-09T19:07:42Z</time>
      </trkpt>
      <trkpt lat="59.9855542" lon="17.7383271">
        <ele>70.7942</ele>
        <time>2012-08-09T19:07:46Z</time>
      </trkpt>
      <trkpt lat="59.985451" lon="17.7382972">
        <ele>69.8329</ele>
        <time>2012-08-09T19:07:50Z</time>
      </trkpt>
      <trkpt lat="59.9852632" lon="17.7382042">
        <ele>69.3523</ele>
        <time>2012-08-09T19:07:56Z</time>
      </trkpt>
      <trkpt lat="59.9852465" lon="17.7381882">
        <ele>68.8716</ele>
        <time>2012-08-09T19:07:57Z</time>
      </trkpt>
      <trkpt lat="59.9851044" lon="17.7381659">
        <ele>71.2749</ele>
        <time>2012-08-09T19:08:02Z</time>
      </trkpt>
      <trkpt lat="59.9849616" lon="17.7381646">
        <ele>71.7555</ele>
        <time>2012-08-09T19:08:07Z</time>
      </trkpt>
      <trkpt lat="59.9848428" lon="17.7381323">
        <ele>70.7942</ele>
        <time>2012-08-09T19:08:12Z</time>
      </trkpt>
      <trkpt lat="59.9846704" lon="17.7381612">
        <ele>70.3135</ele>
        <time>2012-08-09T19:08:17Z</time>
      </trkpt>
      <trkpt lat="59.9845747" lon="17.7381276">
        <ele>70.7942</ele>
        <time>2012-08-09T19:08:21Z</time>
      </trkpt>
      <trkpt lat="59.984469" lon="17.738122">
        <ele>69.8329</ele>
        <time>2012-08-09T19:08:25Z</time>
      </trkpt>
      <trkpt lat="59.9842933" lon="17.7380684">
        <ele>70.7942</ele>
        <time>2012-08-09T19:08:31Z</time>
      </trkpt>
      <trkpt lat="59.9841846" lon="17.7379877">
        <ele>69.8329</ele>
        <time>2012-08-09T19:08:36Z</time>
      </trkpt>
      <trkpt lat="59.9840903" lon="17.7379449">
        <ele>69.8329</ele>
        <time>2012-08-09T19:08:41Z</time>
      </trkpt>
      <trkpt lat="59.9840255" lon="17.7379568">
        <ele>68.3909</ele>
        <time>2012-08-09T19:08:44Z</time>
      </trkpt>
      <trkpt lat="59.983881" lon="17.7379548">
        <ele>65.0264</ele>
        <time>2012-08-09T19:08:50Z</time>
      </trkpt>
      <trkpt lat="59.9837283" lon="17.7380297">
        <ele>64.0651</ele>
        <time>2012-08-09T19:08:55Z</time>
      </trkpt>
      <trkpt lat="59.9835615" lon="17.7380687">
        <ele>63.5844</ele>
        <time>2012-08-09T19:09:01Z</time>
      </trkpt>
      <trkpt lat="59.9834433" lon="17.7381006">
        <ele>62.1423</ele>
        <time>2012-08-09T19:09:06Z</time>
      </trkpt>
      <trkpt lat="59.9833428" lon="17.7381401">
        <ele>62.6229</ele>
        <time>2012-08-09T19:09:10Z</time>
      </trkpt>
      <trkpt lat="59.983246" lon="17.7381492">
        <ele>61.6617</ele>
        <time>2012-08-09T19:09:14Z</time>
      </trkpt>
      <trkpt lat="59.983149" lon="17.7381577">
        <ele>59.2584</ele>
        <time>2012-08-09T19:09:18Z</time>
      </trkpt>
      <trkpt lat="59.9830388" lon="17.7381889">
        <ele>58.2971</ele>
        <time>2012-08-09T19:09:23Z</time>
      </trkpt>
      <trkpt lat="59.9829287" lon="17.7382079">
        <ele>58.2971</ele>
        <time>2012-08-09T19:09:29Z</time>
      </trkpt>
      <trkpt lat="59.9827836" lon="17.7381892">
        <ele>59.7391</ele>
        <time>2012-08-09T19:09:34Z</time>
      </trkpt>
      <trkpt lat="59.9826408" lon="17.7381737">
        <ele>61.181</ele>
        <time>2012-08-09T19:09:38Z</time>
      </trkpt>
      <trkpt lat="59.9825894" lon="17.7382023">
        <ele>60.7003</ele>
        <time>2012-08-09T19:09:40Z</time>
      </trkpt>
      <trkpt lat="59.9824477" lon="17.7381734">
        <ele>58.2971</ele>
        <time>2012-08-09T19:09:45Z</time>
      </trkpt>
      <trkpt lat="59.9823773" lon="17.7381498">
        <ele>56.8551</ele>
        <time>2012-08-09T19:09:48Z</time>
      </trkpt>
      <trkpt lat="59.9822327" lon="17.7382021">
        <ele>55.8938</ele>
        <time>2012-08-09T19:09:54Z</time>
      </trkpt>
      <trkpt lat="59.9821311" lon="17.7382266">
        <ele>55.4131</ele>
        <time>2012-08-09T19:09:58Z</time>
      </trkpt>
      <trkpt lat="59.9820892" lon="17.7382494">
        <ele>54.4518</ele>
        <time>2012-08-09T19:10:00Z</time>
      </trkpt>
      <trkpt lat="59.9819674" lon="17.738315">
        <ele>54.4518</ele>
        <time>2012-08-09T19:10:05Z</time>
      </trkpt>
      <trkpt lat="59.9819035" lon="17.7383597">
        <ele>54.4518</ele>
        <time>2012-08-09T19:10:08Z</time>
      </trkpt>
      <trkpt lat="59.9817659" lon="17.7384238">
        <ele>53.0098</ele>
        <time>2012-08-09T19:10:14Z</time>
      </trkpt>
      <trkpt lat="59.9816142" lon="17.7384644">
        <ele>51.5679</ele>
        <time>2012-08-09T19:10:20Z</time>
      </trkpt>
      <trkpt lat="59.9815183" lon="17.7384984">
        <ele>50.6066</ele>
        <time>2012-08-09T19:10:24Z</time>
      </trkpt>
      <trkpt lat="59.98141" lon="17.7385246">
        <ele>50.126</ele>
        <time>2012-08-09T19:10:28Z</time>
      </trkpt>
      <trkpt lat="59.9813166" lon="17.7385588">
        <ele>49.6453</ele>
        <time>2012-08-09T19:10:32Z</time>
      </trkpt>
      <trkpt lat="59.9811915" lon="17.7385743">
        <ele>48.2034</ele>
        <time>2012-08-09T19:10:37Z</time>
      </trkpt>
      <trkpt lat="59.9810474" lon="17.7386017">
        <ele>47.7225</ele>
        <time>2012-08-09T19:10:42Z</time>
      </trkpt>
      <trkpt lat="59.9809116" lon="17.738639">
        <ele>47.2418</ele>
        <time>2012-08-09T19:10:46Z</time>
      </trkpt>
      <trkpt lat="59.9807993" lon="17.7387115">
        <ele>46.2806</ele>
        <time>2012-08-09T19:10:50Z</time>
      </trkpt>
      <trkpt lat="59.980635" lon="17.7387829">
        <ele>45.7999</ele>
        <time>2012-08-09T19:10:56Z</time>
      </trkpt>
      <trkpt lat="59.9804995" lon="17.7388024">
        <ele>44.8386</ele>
        <time>2012-08-09T19:11:01Z</time>
      </trkpt>
      <trkpt lat="59.9803813" lon="17.7388361">
        <ele>42.916</ele>
        <time>2012-08-09T19:11:06Z</time>
      </trkpt>
      <trkpt lat="59.9802364" lon="17.7388456">
        <ele>42.916</ele>
        <time>2012-08-09T19:11:11Z</time>
      </trkpt>
      <trkpt lat="59.9801356" lon="17.7388326">
        <ele>42.4354</ele>
        <time>2012-08-09T19:11:15Z</time>
      </trkpt>
      <trkpt lat="59.9799926" lon="17.7387954">
        <ele>42.916</ele>
        <time>2012-08-09T19:11:20Z</time>
      </trkpt>
      <trkpt lat="59.9798623" lon="17.7388062">
        <ele>44.358</ele>
        <time>2012-08-09T19:11:24Z</time>
      </trkpt>
      <trkpt lat="59.9796913" lon="17.738872">
        <ele>43.3966</ele>
        <time>2012-08-09T19:11:30Z</time>
      </trkpt>
      <trkpt lat="59.9795976" lon="17.7389294">
        <ele>43.8773</ele>
        <time>2012-08-09T19:11:34Z</time>
      </trkpt>
      <trkpt lat="59.9794231" lon="17.739001">
        <ele>45.3192</ele>
        <time>2012-08-09T19:11:40Z</time>
      </trkpt>
      <trkpt lat="59.9793282" lon="17.7390979">
        <ele>44.8386</ele>
        <time>2012-08-09T19:11:44Z</time>
      </trkpt>
      <trkpt lat="59.9791904" lon="17.7392217">
        <ele>45.3192</ele>
        <time>2012-08-09T19:11:49Z</time>
      </trkpt>
      <trkpt lat="59.9790255" lon="17.7392879">
        <ele>46.2806</ele>
        <time>2012-08-09T19:11:55Z</time>
      </trkpt>
      <trkpt lat="59.9789987" lon="17.7392895">
        <ele>46.2806</ele>
        <time>2012-08-09T19:11:56Z</time>
      </trkpt>
      <trkpt lat="59.97882" lon="17.7393482">
        <ele>46.2806</ele>
        <time>2012-08-09T19:12:02Z</time>
      </trkpt>
      <trkpt lat="59.9787303" lon="17.7393847">
        <ele>46.7612</ele>
        <time>2012-08-09T19:12:05Z</time>
      </trkpt>
      <trkpt lat="59.9786133" lon="17.7393702">
        <ele>47.7225</ele>
        <time>2012-08-09T19:12:10Z</time>
      </trkpt>
      <trkpt lat="59.9784989" lon="17.739341">
        <ele>48.2034</ele>
        <time>2012-08-09T19:12:14Z</time>
      </trkpt>
      <trkpt lat="59.9783532" lon="17.7392881">
        <ele>48.684</ele>
        <time>2012-08-09T19:12:19Z</time>
      </trkpt>
      <trkpt lat="59.9782134" lon="17.7392254">
        <ele>49.1646</ele>
        <time>2012-08-09T19:12:24Z</time>
      </trkpt>
      <trkpt lat="59.978098" lon="17.7391687">
        <ele>49.1646</ele>
        <time>2012-08-09T19:12:29Z</time>
      </trkpt>
      <trkpt lat="59.977944" lon="17.7390839">
        <ele>48.2034</ele>
        <time>2012-08-09T19:12:35Z</time>
      </trkpt>
      <trkpt lat="59.9778291" lon="17.7389908">
        <ele>48.2034</ele>
        <time>2012-08-09T19:12:40Z</time>
      </trkpt>
      <trkpt lat="59.9778062" lon="17.738974">
        <ele>48.2034</ele>
        <time>2012-08-09T19:12:41Z</time>
      </trkpt>
      <trkpt lat="59.9776798" lon="17.7389534">
        <ele>47.7225</ele>
        <time>2012-08-09T19:12:46Z</time>
      </trkpt>
      <trkpt lat="59.9776493" lon="17.7389513">
        <ele>47.7225</ele>
        <time>2012-08-09T19:12:47Z</time>
      </trkpt>
      <trkpt lat="59.977507" lon="17.7389617">
        <ele>47.2418</ele>
        <time>2012-08-09T19:12:52Z</time>
      </trkpt>
      <trkpt lat="59.9773813" lon="17.7390091">
        <ele>47.2418</ele>
        <time>2012-08-09T19:12:56Z</time>
      </trkpt>
      <trkpt lat="59.9772412" lon="17.7390834">
        <ele>47.2418</ele>
        <time>2012-08-09T19:13:01Z</time>
      </trkpt>
      <trkpt lat="59.9771241" lon="17.7391513">
        <ele>46.7612</ele>
        <time>2012-08-09T19:13:05Z</time>
      </trkpt>
      <trkpt lat="59.9769899" lon="17.7392077">
        <ele>46.7612</ele>
        <time>2012-08-09T19:13:10Z</time>
      </trkpt>
      <trkpt lat="59.9768516" lon="17.7392707">
        <ele>47.2418</ele>
        <time>2012-08-09T19:13:15Z</time>
      </trkpt>
      <trkpt lat="59.9767051" lon="17.7393358">
        <ele>47.2418</ele>
        <time>2012-08-09T19:13:20Z</time>
      </trkpt>
      <trkpt lat="59.9766102" lon="17.7394035">
        <ele>47.2418</ele>
        <time>2012-08-09T19:13:24Z</time>
      </trkpt>
      <trkpt lat="59.9765097" lon="17.7394874">
        <ele>47.2418</ele>
        <time>2012-08-09T19:13:28Z</time>
      </trkpt>
      <trkpt lat="59.9764244" lon="17.7396704">
        <ele>35.7061</ele>
        <time>2012-08-09T19:13:34Z</time>
      </trkpt>
      <trkpt lat="59.9763151" lon="17.739777">
        <ele>28.0155</ele>
        <time>2012-08-09T19:13:40Z</time>
      </trkpt>
      <trkpt lat="59.9762968" lon="17.7397795">
        <ele>27.0543</ele>
        <time>2012-08-09T19:13:41Z</time>
      </trkpt>
      <trkpt lat="59.9761408" lon="17.7396123">
        <ele>23.209</ele>
        <time>2012-08-09T19:13:48Z</time>
      </trkpt>
      <trkpt lat="59.9760342" lon="17.739417">
        <ele>21.767</ele>
        <time>2012-08-09T19:13:53Z</time>
      </trkpt>
      <trkpt lat="59.9759131" lon="17.7392128">
        <ele>22.2476</ele>
        <time>2012-08-09T19:13:59Z</time>
      </trkpt>
      <trkpt lat="59.9757572" lon="17.7389564">
        <ele>23.6896</ele>
        <time>2012-08-09T19:14:06Z</time>
      </trkpt>
      <trkpt lat="59.975631" lon="17.7387686">
        <ele>27.5349</ele>
        <time>2012-08-09T19:14:11Z</time>
      </trkpt>
      <trkpt lat="59.975513" lon="17.7385901">
        <ele>30.8995</ele>
        <time>2012-08-09T19:14:16Z</time>
      </trkpt>
      <trkpt lat="59.9754015" lon="17.7384155">
        <ele>33.3029</ele>
        <time>2012-08-09T19:14:21Z</time>
      </trkpt>
      <trkpt lat="59.9752854" lon="17.7382438">
        <ele>36.6675</ele>
        <time>2012-08-09T19:14:26Z</time>
      </trkpt>
      <trkpt lat="59.9751789" lon="17.7380737">
        <ele>38.1094</ele>
        <time>2012-08-09T19:14:31Z</time>
      </trkpt>
      <trkpt lat="59.9750753" lon="17.7379002">
        <ele>39.0707</ele>
        <time>2012-08-09T19:14:36Z</time>
      </trkpt>
      <trkpt lat="59.9749724" lon="17.7377433">
        <ele>39.0707</ele>
        <time>2012-08-09T19:14:41Z</time>
      </trkpt>
      <trkpt lat="59.9749635" lon="17.7377122">
        <ele>37.6287</ele>
        <time>2012-08-09T19:14:42Z</time>
      </trkpt>
      <trkpt lat="59.9748991" lon="17.737559">
        <ele>36.6675</ele>
        <time>2012-08-09T19:14:46Z</time>
      </trkpt>
      <trkpt lat="59.9748517" lon="17.7374459">
        <ele>35.2255</ele>
        <time>2012-08-09T19:14:49Z</time>
      </trkpt>
      <trkpt lat="59.9747439" lon="17.7371801">
        <ele>32.8223</ele>
        <time>2012-08-09T19:14:56Z</time>
      </trkpt>
      <trkpt lat="59.9746677" lon="17.736989">
        <ele>32.3416</ele>
        <time>2012-08-09T19:15:01Z</time>
      </trkpt>
      <trkpt lat="59.9746175" lon="17.736813">
        <ele>30.4188</ele>
        <time>2012-08-09T19:15:05Z</time>
      </trkpt>
      <trkpt lat="59.9745827" lon="17.7366283">
        <ele>26.5736</ele>
        <time>2012-08-09T19:15:09Z</time>
      </trkpt>
      <trkpt lat="59.9745341" lon="17.73647">
        <ele>27.5349</ele>
        <time>2012-08-09T19:15:13Z</time>
      </trkpt>
      <trkpt lat="59.9745018" lon="17.7362592">
        <ele>24.1703</ele>
        <time>2012-08-09T19:15:18Z</time>
      </trkpt>
      <trkpt lat="59.9744703" lon="17.7360846">
        <ele>24.651</ele>
        <time>2012-08-09T19:15:23Z</time>
      </trkpt>
      <trkpt lat="59.9744454" lon="17.7359037">
        <ele>23.6896</ele>
        <time>2012-08-09T19:15:27Z</time>
      </trkpt>
      <trkpt lat="59.9744126" lon="17.7356809">
        <ele>23.209</ele>
        <time>2012-08-09T19:15:32Z</time>
      </trkpt>
      <trkpt lat="59.974403" lon="17.7355004">
        <ele>21.767</ele>
        <time>2012-08-09T19:15:36Z</time>
      </trkpt>
      <trkpt lat="59.974389" lon="17.7353044">
        <ele>20.325</ele>
        <time>2012-08-09T19:15:40Z</time>
      </trkpt>
      <trkpt lat="59.9743755" lon="17.7351066">
        <ele>19.3638</ele>
        <time>2012-08-09T19:15:44Z</time>
      </trkpt>
      <trkpt lat="59.9743475" lon="17.7348207">
        <ele>19.8444</ele>
        <time>2012-08-09T19:15:49Z</time>
      </trkpt>
      <trkpt lat="59.9743285" lon="17.7346264">
        <ele>24.1703</ele>
        <time>2012-08-09T19:15:53Z</time>
      </trkpt>
      <trkpt lat="59.9743267" lon="17.7344364">
        <ele>26.5736</ele>
        <time>2012-08-09T19:15:57Z</time>
      </trkpt>
      <trkpt lat="59.974345" lon="17.7342325">
        <ele>24.651</ele>
        <time>2012-08-09T19:16:01Z</time>
      </trkpt>
      <trkpt lat="59.974346" lon="17.7340525">
        <ele>28.0155</ele>
        <time>2012-08-09T19:16:05Z</time>
      </trkpt>
      <trkpt lat="59.9743422" lon="17.73381">
        <ele>31.8607</ele>
        <time>2012-08-09T19:16:10Z</time>
      </trkpt>
      <trkpt lat="59.974361" lon="17.7335799">
        <ele>32.8223</ele>
        <time>2012-08-09T19:16:15Z</time>
      </trkpt>
      <trkpt lat="59.9743541" lon="17.733373">
        <ele>35.7061</ele>
        <time>2012-08-09T19:16:19Z</time>
      </trkpt>
      <trkpt lat="59.9743593" lon="17.7331121">
        <ele>37.1481</ele>
        <time>2012-08-09T19:16:24Z</time>
      </trkpt>
      <trkpt lat="59.9743553" lon="17.732957">
        <ele>37.1481</ele>
        <time>2012-08-09T19:16:27Z</time>
      </trkpt>
      <trkpt lat="59.9743817" lon="17.7327145">
        <ele>34.7449</ele>
        <time>2012-08-09T19:16:32Z</time>
      </trkpt>
      <trkpt lat="59.9743733" lon="17.7325684">
        <ele>36.1868</ele>
        <time>2012-08-09T19:16:35Z</time>
      </trkpt>
      <trkpt lat="59.9743665" lon="17.7323506">
        <ele>39.0707</ele>
        <time>2012-08-09T19:16:40Z</time>
      </trkpt>
      <trkpt lat="59.9743696" lon="17.7321534">
        <ele>39.0707</ele>
        <time>2012-08-09T19:16:44Z</time>
      </trkpt>
      <trkpt lat="59.9743702" lon="17.7319189">
        <ele>38.1094</ele>
        <time>2012-08-09T19:16:49Z</time>
      </trkpt>
      <trkpt lat="59.9743553" lon="17.731652">
        <ele>40.0321</ele>
        <time>2012-08-09T19:16:54Z</time>
      </trkpt>
      <trkpt lat="59.9743641" lon="17.7314451">
        <ele>37.1481</ele>
        <time>2012-08-09T19:16:58Z</time>
      </trkpt>
      <trkpt lat="59.9743688" lon="17.7311376">
        <ele>36.1868</ele>
        <time>2012-08-09T19:17:04Z</time>
      </trkpt>
      <trkpt lat="59.9743759" lon="17.730875">
        <ele>36.1868</ele>
        <time>2012-08-09T19:17:09Z</time>
      </trkpt>
      <trkpt lat="59.9743826" lon="17.7306252">
        <ele>37.6287</ele>
        <time>2012-08-09T19:17:14Z</time>
      </trkpt>
      <trkpt lat="59.9743977" lon="17.7303737">
        <ele>38.5901</ele>
        <time>2012-08-09T19:17:19Z</time>
      </trkpt>
      <trkpt lat="59.9744114" lon="17.7300245">
        <ele>41.9547</ele>
        <time>2012-08-09T19:17:26Z</time>
      </trkpt>
      <trkpt lat="59.9744277" lon="17.7297437">
        <ele>41.474</ele>
        <time>2012-08-09T19:17:31Z</time>
      </trkpt>
      <trkpt lat="59.9744314" lon="17.7294312">
        <ele>43.3966</ele>
        <time>2012-08-09T19:17:37Z</time>
      </trkpt>
      <trkpt lat="59.9744262" lon="17.7291826">
        <ele>45.7999</ele>
        <time>2012-08-09T19:17:42Z</time>
      </trkpt>
      <trkpt lat="59.9744137" lon="17.7289338">
        <ele>45.3192</ele>
        <time>2012-08-09T19:17:47Z</time>
      </trkpt>
      <trkpt lat="59.9744147" lon="17.7288917">
        <ele>45.7999</ele>
        <time>2012-08-09T19:17:48Z</time>
      </trkpt>
      <trkpt lat="59.9744361" lon="17.7288706">
        <ele>45.3192</ele>
        <time>2012-08-09T19:17:50Z</time>
      </trkpt>
      <trkpt lat="59.9744598" lon="17.7290841">
        <ele>40.9934</ele>
        <time>2012-08-09T19:17:54Z</time>
      </trkpt>
      <trkpt lat="59.9744977" lon="17.7294726">
        <ele>33.3029</ele>
        <time>2012-08-09T19:18:01Z</time>
      </trkpt>
      <trkpt lat="59.9744882" lon="17.7297343">
        <ele>31.8607</ele>
        <time>2012-08-09T19:18:06Z</time>
      </trkpt>
      <trkpt lat="59.9744851" lon="17.7299359">
        <ele>30.4188</ele>
        <time>2012-08-09T19:18:10Z</time>
      </trkpt>
      <trkpt lat="59.9744812" lon="17.7302134">
        <ele>27.5349</ele>
        <time>2012-08-09T19:18:15Z</time>
      </trkpt>
      <trkpt lat="59.9744764" lon="17.7304088">
        <ele>25.1317</ele>
        <time>2012-08-09T19:18:19Z</time>
      </trkpt>
      <trkpt lat="59.9744558" lon="17.7304957">
        <ele>25.1317</ele>
        <time>2012-08-09T19:18:21Z</time>
      </trkpt>
      <trkpt lat="59.9744417" lon="17.7307771">
        <ele>23.6896</ele>
        <time>2012-08-09T19:18:27Z</time>
      </trkpt>
      <trkpt lat="59.9744367" lon="17.7308244">
        <ele>24.1703</ele>
        <time>2012-08-09T19:18:28Z</time>
      </trkpt>
      <trkpt lat="59.974447" lon="17.7310755">
        <ele>18.8831</ele>
        <time>2012-08-09T19:18:33Z</time>
      </trkpt>
      <trkpt lat="59.9744435" lon="17.7313933">
        <ele>18.8831</ele>
        <time>2012-08-09T19:18:39Z</time>
      </trkpt>
      <trkpt lat="59.974444" lon="17.7315918">
        <ele>18.8831</ele>
        <time>2012-08-09T19:18:43Z</time>
      </trkpt>
      <trkpt lat="59.9744385" lon="17.73184">
        <ele>16.4797</ele>
        <time>2012-08-09T19:18:48Z</time>
      </trkpt>
      <trkpt lat="59.9744517" lon="17.7320716">
        <ele>14.0764</ele>
        <time>2012-08-09T19:18:53Z</time>
      </trkpt>
      <trkpt lat="59.9744708" lon="17.7323074">
        <ele>12.6344</ele>
        <time>2012-08-09T19:18:58Z</time>
      </trkpt>
      <trkpt lat="59.9744566" lon="17.7325026">
        <ele>16.4797</ele>
        <time>2012-08-09T19:19:02Z</time>
      </trkpt>
      <trkpt lat="59.9744574" lon="17.7327332">
        <ele>17.9218</ele>
        <time>2012-08-09T19:19:07Z</time>
      </trkpt>
      <trkpt lat="59.974439" lon="17.7329727">
        <ele>21.2864</ele>
        <time>2012-08-09T19:19:12Z</time>
      </trkpt>
      <trkpt lat="59.9744237" lon="17.7332046">
        <ele>22.2476</ele>
        <time>2012-08-09T19:19:17Z</time>
      </trkpt>
      <trkpt lat="59.9744251" lon="17.7334438">
        <ele>22.2476</ele>
        <time>2012-08-09T19:19:22Z</time>
      </trkpt>
      <trkpt lat="59.9744093" lon="17.7336917">
        <ele>22.7283</ele>
        <time>2012-08-09T19:19:27Z</time>
      </trkpt>
      <trkpt lat="59.9743983" lon="17.733993">
        <ele>22.2476</ele>
        <time>2012-08-09T19:19:33Z</time>
      </trkpt>
      <trkpt lat="59.9743958" lon="17.7341645">
        <ele>22.7283</ele>
        <time>2012-08-09T19:19:37Z</time>
      </trkpt>
      <trkpt lat="59.974375" lon="17.7344337">
        <ele>22.7283</ele>
        <time>2012-08-09T19:19:43Z</time>
      </trkpt>
      <trkpt lat="59.9743563" lon="17.7346062">
        <ele>23.6896</ele>
        <time>2012-08-09T19:19:47Z</time>
      </trkpt>
      <trkpt lat="59.974387" lon="17.7348383">
        <ele>18.8831</ele>
        <time>2012-08-09T19:19:52Z</time>
      </trkpt>
      <trkpt lat="59.9743875" lon="17.7350349">
        <ele>18.8831</ele>
        <time>2012-08-09T19:19:56Z</time>
      </trkpt>
      <trkpt lat="59.9743984" lon="17.735286">
        <ele>22.7283</ele>
        <time>2012-08-09T19:20:01Z</time>
      </trkpt>
      <trkpt lat="59.9744316" lon="17.7355315">
        <ele>24.1703</ele>
        <time>2012-08-09T19:20:06Z</time>
      </trkpt>
      <trkpt lat="59.9744605" lon="17.7357204">
        <ele>25.1317</ele>
        <time>2012-08-09T19:20:10Z</time>
      </trkpt>
      <trkpt lat="59.9745041" lon="17.7359882">
        <ele>26.0929</ele>
        <time>2012-08-09T19:20:16Z</time>
      </trkpt>
      <trkpt lat="59.9745298" lon="17.736154">
        <ele>26.5736</ele>
        <time>2012-08-09T19:20:20Z</time>
      </trkpt>
      <trkpt lat="59.974561" lon="17.7363581">
        <ele>27.0543</ele>
        <time>2012-08-09T19:20:25Z</time>
      </trkpt>
      <trkpt lat="59.9746219" lon="17.7365975">
        <ele>27.5349</ele>
        <time>2012-08-09T19:20:31Z</time>
      </trkpt>
      <trkpt lat="59.9746758" lon="17.7367789">
        <ele>28.4962</ele>
        <time>2012-08-09T19:20:36Z</time>
      </trkpt>
      <trkpt lat="59.9747248" lon="17.7369299">
        <ele>28.9769</ele>
        <time>2012-08-09T19:20:40Z</time>
      </trkpt>
      <trkpt lat="59.9747863" lon="17.7371103">
        <ele>31.3801</ele>
        <time>2012-08-09T19:20:45Z</time>
      </trkpt>
      <trkpt lat="59.974875" lon="17.7373175">
        <ele>32.8223</ele>
        <time>2012-08-09T19:20:51Z</time>
      </trkpt>
      <trkpt lat="59.9749613" lon="17.7374754">
        <ele>33.7834</ele>
        <time>2012-08-09T19:20:56Z</time>
      </trkpt>
      <trkpt lat="59.9750479" lon="17.7376294">
        <ele>33.7834</ele>
        <time>2012-08-09T19:21:01Z</time>
      </trkpt>
      <trkpt lat="59.975152" lon="17.7378084">
        <ele>34.7449</ele>
        <time>2012-08-09T19:21:07Z</time>
      </trkpt>
      <trkpt lat="59.9752535" lon="17.7379923">
        <ele>34.2642</ele>
        <time>2012-08-09T19:21:13Z</time>
      </trkpt>
      <trkpt lat="59.9753758" lon="17.7381928">
        <ele>33.7834</ele>
        <time>2012-08-09T19:21:19Z</time>
      </trkpt>
      <trkpt lat="59.9754797" lon="17.7383811">
        <ele>32.8223</ele>
        <time>2012-08-09T19:21:25Z</time>
      </trkpt>
      <trkpt lat="59.9755628" lon="17.7385297">
        <ele>31.3801</ele>
        <time>2012-08-09T19:21:30Z</time>
      </trkpt>
      <trkpt lat="59.9756472" lon="17.7387146">
        <ele>31.3801</ele>
        <time>2012-08-09T19:21:36Z</time>
      </trkpt>
      <trkpt lat="59.9757045" lon="17.7388486">
        <ele>31.3801</ele>
        <time>2012-08-09T19:21:41Z</time>
      </trkpt>
      <trkpt lat="59.975841" lon="17.7390844">
        <ele>32.3416</ele>
        <time>2012-08-09T19:21:47Z</time>
      </trkpt>
      <trkpt lat="59.9759473" lon="17.7392632">
        <ele>32.3416</ele>
        <time>2012-08-09T19:21:52Z</time>
      </trkpt>
      <trkpt lat="59.9760269" lon="17.7393867">
        <ele>32.8223</ele>
        <time>2012-08-09T19:21:56Z</time>
      </trkpt>
      <trkpt lat="59.9761342" lon="17.7395574">
        <ele>34.7449</ele>
        <time>2012-08-09T19:22:02Z</time>
      </trkpt>
      <trkpt lat="59.9762113" lon="17.7396787">
        <ele>35.7061</ele>
        <time>2012-08-09T19:22:07Z</time>
      </trkpt>
      <trkpt lat="59.976321" lon="17.7397268">
        <ele>37.1481</ele>
        <time>2012-08-09T19:22:13Z</time>
      </trkpt>
      <trkpt lat="59.9764262" lon="17.7396232">
        <ele>37.6287</ele>
        <time>2012-08-09T19:22:18Z</time>
      </trkpt>
      <trkpt lat="59.9764828" lon="17.7395377">
        <ele>38.1094</ele>
        <time>2012-08-09T19:22:21Z</time>
      </trkpt>
      <trkpt lat="59.9765761" lon="17.7394349">
        <ele>39.5513</ele>
        <time>2012-08-09T19:22:25Z</time>
      </trkpt>
      <trkpt lat="59.976678" lon="17.7392466">
        <ele>43.8773</ele>
        <time>2012-08-09T19:22:31Z</time>
      </trkpt>
      <trkpt lat="59.9768029" lon="17.7391997">
        <ele>44.358</ele>
        <time>2012-08-09T19:22:37Z</time>
      </trkpt>
    </trkseg>
  </trk>
</gpx>